Terminal Aerodrome Forecast
Issued by NWS Blacksburg, VA

Home | Current Version | Previous Version | Text Only | Print | Product List | Glossary On
Versions: 1 2 3 4 5 6 7 8 9 10 11 12 13 14 15 16 17 18 19 20 21 22 23 24 25 26 27 28 29 30 31 32 33 34 35 36 37 38 39 40 41 42 43 44 45 46 47 48 49 50
000
FTUS41 KRNK 300525
TAFROA
TAF
KROA 300525Z 3006/0106 VRB03KT P6SM VCSH BKN008 OVC015
     FM300900 09006KT 3SM -SHRA BR OVC005
     FM301500 09006KT 6SM BR VCSH OVC012
     FM301800 11007KT P6SM VCSH BKN030
     FM010000 04004KT P6SM SCT007 BKN015=

USA.gov is the U.S. government's official web portal to all federal, state and local government web resources and services.